createdAt,value
2023-05-16T00:05:02.284Z,43.00
2023-05-16T00:10:07.504Z,42.75
2023-05-16T00:15:15.597Z,42.00
2023-05-16T00:20:24.748Z,46.00
2023-05-16T00:30:34.959Z,44.75
2023-05-16T00:35:39.992Z,47.50
2023-05-16T00:40:45.067Z,46.67
2023-05-16T00:45:50.021Z,44.50
2023-05-16T00:50:55.726Z,44.33
2023-05-16T00:56:01.270Z,45.25
2023-05-16T01:01:09.164Z,48.00
2023-05-16T01:06:14.395Z,46.75
2023-05-16T01:11:41.772Z,45.50
2023-05-16T01:16:54.417Z,45.75
2023-05-16T01:22:08.757Z,46.75
2023-05-16T01:27:15.209Z,49.75
2023-05-16T01:32:21.659Z,48.00
2023-05-16T01:37:40.427Z,48.00
2023-05-16T01:42:49.015Z,47.75
2023-05-16T01:48:03.438Z,48.75
2023-05-16T01:53:35.350Z,48.00
2023-05-16T01:58:41.384Z,50.00
2023-05-16T02:03:46.479Z,50.00
2023-05-16T02:08:51.847Z,49.67
2023-05-16T02:13:56.792Z,46.25
2023-05-16T02:19:01.729Z,46.33
2023-05-16T02:24:07.113Z,50.00
2023-05-16T02:29:12.455Z,50.00
2023-05-16T02:34:18.031Z,50.00
2023-05-16T02:39:23.492Z,49.33
2023-05-16T02:44:29.027Z,49.25
2023-05-16T02:49:36.130Z,49.50
2023-05-16T02:54:40.988Z,50.00
2023-05-16T02:59:45.898Z,50.00
2023-05-16T03:04:51.060Z,50.00
2023-05-16T03:09:56.787Z,49.75
2023-05-16T03:15:01.663Z,49.00
2023-05-16T03:25:12.061Z,50.00
2023-05-16T03:30:18.902Z,50.00
2023-05-16T03:35:24.671Z,49.67
2023-05-16T03:40:29.558Z,47.67
2023-05-16T03:45:34.769Z,47.50
2023-05-16T03:50:41.014Z,50.00
2023-05-16T03:55:48.741Z,49.33
2023-05-16T04:00:54.013Z,48.00
2023-05-16T04:05:59.478Z,49.25
2023-05-16T04:11:04.391Z,50.00
2023-05-16T04:16:09.678Z,50.00
2023-05-16T04:21:16.625Z,48.25
2023-05-16T04:36:33.985Z,50.00
2023-05-16T04:41:39.076Z,48.50
2023-05-16T04:46:44.298Z,50.00
2023-05-16T04:51:50.180Z,48.75
2023-05-16T04:56:55.192Z,42.33
2023-05-16T05:02:00.075Z,49.00
2023-05-16T05:07:04.879Z,49.50
2023-05-16T05:12:10.511Z,49.00
2023-05-16T05:17:16.414Z,50.00
2023-05-16T05:22:22.398Z,48.00
2023-05-16T05:27:28.472Z,49.50
2023-05-16T05:32:33.564Z,48.25
2023-05-16T05:37:39.328Z,50.00
2023-05-16T05:42:46.777Z,50.00
2023-05-16T05:47:52.393Z,50.00
2023-05-16T05:52:58.094Z,49.75
2023-05-16T05:58:05.603Z,50.00
2023-05-16T06:03:12.322Z,50.00
2023-05-16T06:08:17.412Z,48.33
2023-05-16T06:13:22.895Z,48.25
2023-05-16T06:18:28.611Z,47.00
2023-05-16T06:23:33.784Z,45.25
2023-05-16T06:28:38.886Z,46.33
2023-05-16T06:33:43.666Z,48.75
2023-05-16T06:43:53.476Z,46.00
2023-05-16T06:48:58.458Z,44.00
2023-05-16T06:54:04.281Z,45.00
2023-05-16T06:59:09.429Z,48.33
2023-05-16T07:04:14.501Z,45.50
2023-05-16T07:09:20.662Z,46.67
2023-05-16T07:14:26.095Z,46.25
2023-05-16T07:19:31.696Z,50.00
2023-05-16T07:24:37.696Z,47.75
2023-05-16T07:29:42.934Z,46.50
2023-05-16T07:34:48.139Z,45.50
2023-05-16T07:39:53.058Z,45.67
2023-05-16T07:44:58.482Z,44.67
2023-05-16T07:50:03.831Z,45.00
2023-05-16T07:55:09.414Z,43.25
2023-05-16T08:00:14.784Z,48.00
2023-05-16T08:05:19.657Z,46.00
2023-05-16T08:10:25.103Z,43.25
2023-05-16T08:15:30.550Z,45.75
2023-05-16T08:20:35.397Z,45.50
2023-05-16T08:25:42.317Z,45.50
2023-05-16T08:30:48.033Z,44.75
2023-05-16T08:35:54.280Z,39.33
2023-05-16T08:40:59.445Z,43.00
2023-05-16T08:46:04.493Z,41.33
2023-05-16T08:51:12.223Z,41.25
2023-05-16T08:56:19.673Z,38.75
2023-05-16T09:01:26.104Z,42.00
2023-05-16T09:06:31.526Z,45.25
2023-05-16T09:11:37.351Z,36.33
2023-05-16T09:16:42.940Z,39.50
2023-05-16T09:21:48.156Z,35.25
2023-05-16T09:26:53.043Z,35.67
2023-05-16T09:32:11.587Z,37.00
2023-05-16T09:37:17.194Z,34.33
2023-05-16T09:42:24.066Z,33.00
2023-05-16T09:47:30.584Z,35.50
2023-05-16T09:52:35.660Z,39.50
2023-05-16T09:57:41.777Z,30.50
2023-05-16T10:02:47.664Z,35.00
2023-05-16T10:07:57.858Z,39.75
2023-05-16T10:13:08.068Z,41.33
2023-05-16T10:18:15.696Z,35.75
2023-05-16T10:23:23.770Z,34.00
2023-05-16T10:28:30.604Z,35.33
2023-05-16T10:33:37.826Z,37.25
2023-05-16T10:38:44.394Z,35.67
2023-05-16T10:44:00.565Z,37.33
2023-05-16T10:49:32.560Z,36.00
2023-05-16T10:54:43.179Z,38.67
2023-05-16T10:59:50.870Z,36.67
2023-05-16T11:05:01.790Z,33.50
2023-05-16T11:10:10.298Z,33.75
2023-05-16T11:15:29.673Z,30.50
2023-05-16T11:20:37.503Z,30.00
2023-05-16T11:25:45.288Z,27.00
2023-05-16T11:36:15.293Z,29.25
2023-05-16T11:41:23.169Z,27.25
2023-05-16T11:46:31.398Z,29.25
2023-05-16T11:51:39.546Z,29.25
2023-05-16T11:56:45.382Z,26.25
2023-05-16T12:01:51.727Z,26.00
2023-05-16T12:07:02.614Z,23.33
2023-05-16T12:12:09.306Z,24.50
2023-05-16T12:17:15.116Z,24.50
2023-05-16T12:22:21.906Z,15.33
2023-05-16T12:27:29.309Z,24.33
2023-05-16T12:32:39.721Z,24.00
2023-05-16T12:37:46.634Z,24.67
2023-05-16T12:42:53.656Z,22.67
2023-05-16T12:47:59.525Z,26.75
2023-05-16T12:58:13.113Z,25.67
2023-05-16T13:03:18.550Z,20.50
2023-05-16T13:08:24.747Z,22.00
2023-05-16T13:13:36.475Z,18.00
2023-05-16T13:18:42.442Z,20.75
2023-05-16T13:23:47.828Z,21.50
2023-05-16T13:28:54.415Z,21.50
2023-05-16T13:34:01.559Z,20.00
2023-05-16T13:39:07.540Z,15.75
2023-05-16T13:44:14.338Z,16.25
2023-05-16T13:49:21.128Z,17.33
2023-05-16T13:54:26.856Z,18.67
2023-05-16T13:59:56.805Z,17.33
2023-05-16T14:10:03.269Z,16.75
2023-05-16T14:15:11.083Z,13.00
2023-05-16T14:20:16.732Z,15.00
2023-05-16T14:25:23.070Z,15.00
2023-05-16T14:30:29.359Z,13.33
2023-05-16T14:35:35.796Z,19.25
2023-05-16T14:40:41.414Z,19.50
2023-05-16T14:50:53.267Z,13.50
2023-05-16T14:55:59.014Z,18.00
2023-05-16T15:01:05.371Z,18.50
2023-05-16T15:06:10.881Z,16.25
2023-05-16T15:11:16.576Z,14.75
2023-05-16T15:16:22.296Z,19.50
2023-05-16T15:21:28.643Z,14.67
2023-05-16T15:26:34.324Z,16.50
2023-05-16T15:31:39.922Z,17.67
2023-05-16T15:36:45.127Z,17.33
2023-05-16T15:42:09.153Z,13.75
2023-05-16T15:47:16.429Z,15.50
2023-05-16T15:52:23.007Z,23.75
2023-05-16T15:57:28.864Z,19.33
2023-05-16T16:02:35.168Z,22.00
2023-05-16T16:07:41.598Z,21.50
2023-05-16T16:13:03.455Z,17.00
2023-05-16T16:18:08.484Z,19.33
2023-05-16T16:23:13.705Z,13.50
2023-05-16T16:28:19.163Z,19.50
2023-05-16T16:33:24.896Z,15.67
2023-05-16T16:38:30.157Z,20.00
2023-05-16T16:43:35.150Z,17.25
2023-05-16T16:48:40.185Z,19.50
2023-05-16T16:53:45.246Z,13.75
2023-05-16T16:58:50.090Z,13.67
2023-05-16T17:03:56.046Z,13.00
2023-05-16T17:09:06.128Z,17.00
2023-05-16T17:14:11.979Z,12.00
2023-05-16T17:19:17.397Z,12.67
2023-05-16T17:24:22.939Z,12.67
2023-05-16T17:29:28.410Z,14.00
2023-05-16T17:34:34.572Z,18.67
2023-05-16T17:39:40.292Z,21.75
2023-05-16T17:44:45.330Z,17.75
2023-05-16T17:49:51.207Z,13.33
2023-05-16T17:54:56.266Z,15.00
2023-05-16T18:00:01.395Z,12.00
2023-05-16T18:05:11.582Z,8.00
2023-05-16T18:10:16.722Z,15.00
2023-05-16T18:15:21.667Z,16.67
2023-05-16T18:20:27.037Z,21.75
2023-05-16T18:25:32.467Z,17.00
2023-05-16T18:30:38.290Z,15.33
2023-05-16T18:35:43.292Z,16.75
2023-05-16T18:40:49.520Z,17.00
2023-05-16T18:45:56.092Z,17.00
2023-05-16T18:51:01.748Z,22.25
2023-05-16T18:56:08.011Z,16.33
2023-05-16T19:01:12.885Z,19.50
2023-05-16T19:06:17.927Z,14.00
2023-05-16T19:11:23.975Z,24.25
2023-05-16T19:16:29.034Z,14.00
2023-05-16T19:21:34.028Z,17.00
2023-05-16T19:26:39.493Z,19.33
2023-05-16T19:31:44.265Z,18.67
2023-05-16T19:36:49.444Z,19.50
2023-05-16T19:41:57.044Z,16.33
2023-05-16T19:47:01.880Z,16.75
2023-05-16T19:52:10.183Z,15.25
2023-05-16T19:57:15.068Z,18.00
2023-05-16T20:02:22.357Z,22.00
2023-05-16T20:07:29.181Z,17.75
2023-05-16T20:12:34.132Z,20.67
2023-05-16T20:17:40.561Z,17.75
2023-05-16T20:22:45.517Z,17.25
2023-05-16T20:27:50.450Z,15.00
2023-05-16T20:32:55.523Z,16.00
2023-05-16T20:38:00.744Z,21.33
2023-05-16T20:43:05.962Z,19.25
2023-05-16T20:48:11.853Z,16.00
2023-05-16T20:53:16.982Z,20.00
2023-05-16T20:58:21.923Z,19.25
2023-05-16T21:03:26.921Z,25.00
2023-05-16T21:08:31.946Z,22.75
2023-05-16T21:13:37.056Z,18.00
2023-05-16T21:18:41.925Z,22.50
2023-05-16T21:23:46.898Z,15.00
2023-05-16T21:28:55.499Z,17.00
2023-05-16T21:34:01.115Z,13.00
2023-05-16T21:39:07.327Z,22.67
2023-05-16T21:49:21.700Z,21.33
2023-05-16T21:54:27.000Z,18.00
2023-05-16T21:59:32.053Z,18.67
2023-05-16T22:04:37.122Z,20.00
2023-05-16T22:09:43.018Z,22.00
2023-05-16T22:14:48.149Z,18.75
2023-05-16T22:19:53.200Z,21.50
2023-05-16T22:24:58.335Z,18.67
2023-05-16T22:30:03.138Z,15.00
2023-05-16T22:35:08.429Z,21.67
2023-05-16T22:40:13.618Z,20.50
2023-05-16T22:45:18.491Z,21.50
2023-05-16T22:50:23.218Z,24.67
2023-05-16T22:55:28.586Z,23.00
2023-05-16T23:00:33.767Z,16.50
2023-05-16T23:10:42.995Z,15.50
2023-05-16T23:15:47.891Z,19.33
2023-05-16T23:20:52.758Z,19.25
2023-05-16T23:25:57.822Z,24.67
2023-05-16T23:31:02.850Z,15.00
2023-05-16T23:36:08.665Z,21.67
2023-05-16T23:41:13.772Z,19.50
2023-05-16T23:46:18.962Z,15.33
2023-05-16T23:51:24.008Z,19.00
2023-05-16T23:56:29.030Z,16.33
